Time;durP1;ratioP1;P1;durP2;ratioP2;P2;SDS_P1;SDS_P2;PMS_P1;PMS_P2;Temp;Humidity;BMP_temperature;BMP_pressure;BME280_temperature;BME280_humidity;BME280_pressure;Samples;Min_cycle;Max_cycle;Signal;HPM_P1;HPM_P2
2023/03/02 00:01:43;;;;;;;19.43;14.20;;;2.40;99.90;;;;;;5055455;28;20075;-32
2023/03/02 00:04:18;;;;;;;22.02;14.05;;;2.40;99.90;;;;;;5056439;28;20045;-34
2023/03/02 00:06:47;;;;;;;19.40;13.17;;;2.40;99.90;;;;;;5073163;28;20067;-33
2023/03/02 00:09:13;;;;;;;19.73;13.60;;;2.30;99.90;;;;;;5072937;28;20087;-33
2023/03/02 00:11:45;;;;;;;16.83;12.30;;;2.30;99.90;;;;;;5072945;28;20045;-33
2023/03/02 00:14:11;;;;;;;16.13;14.13;;;2.40;99.90;;;;;;5072399;28;20040;-32
2023/03/02 00:16:39;;;;;;;16.43;12.17;;;2.30;99.90;;;;;;5073488;28;20094;-32
2023/03/02 00:19:07;;;;;;;15.23;11.43;;;2.30;99.90;;;;;;5073757;28;20402;-33
2023/03/02 00:21:36;;;;;;;17.93;11.90;;;2.30;99.90;;;;;;5072441;28;20056;-32
2023/03/02 00:24:06;;;;;;;16.10;11.90;;;2.20;99.90;;;;;;5073719;28;20119;-32
2023/03/02 00:26:35;;;;;;;15.03;10.67;;;2.20;99.90;;;;;;5073155;28;20489;-32
2023/03/02 00:29:02;;;;;;;19.33;12.60;;;2.20;99.90;;;;;;5074741;28;20075;-32
2023/03/02 00:31:31;;;;;;;19.13;13.00;;;2.20;99.90;;;;;;5076188;28;20203;-33
2023/03/02 00:33:58;;;;;;;16.57;12.17;;;2.20;99.90;;;;;;5078169;28;20098;-33
2023/03/02 00:36:24;;;;;;;18.20;11.90;;;2.10;99.90;;;;;;5043009;28;20044;-32
2023/03/02 00:38:53;;;;;;;18.37;11.17;;;2.10;99.90;;;;;;5077216;28;20628;-32
2023/03/02 00:41:22;;;;;;;14.70;10.97;;;2.10;99.90;;;;;;5076106;28;20053;-33
2023/03/02 00:43:51;;;;;;;16.03;11.93;;;2.10;99.90;;;;;;5060693;28;20048;-32
2023/03/02 00:46:21;;;;;;;15.03;10.83;;;1.90;99.90;;;;;;5077071;28;20131;-33
2023/03/02 00:48:47;;;;;;;15.87;10.53;;;1.80;99.90;;;;;;5076033;28;20052;-33
2023/03/02 00:51:16;;;;;;;21.17;10.90;;;1.70;99.90;;;;;;5075800;28;20110;-32
2023/03/02 00:53:42;;;;;;;14.67;9.67;;;1.60;99.90;;;;;;5059476;28;20056;-33
2023/03/02 00:56:09;;;;;;;15.73;10.70;;;1.50;99.90;;;;;;5076574;28;20510;-32
2023/03/02 00:58:36;;;;;;;15.17;11.03;;;1.40;99.90;;;;;;5076830;28;20059;-32
2023/03/02 01:01:11;;;;;;;15.80;11.30;;;1.30;99.90;;;;;;5059070;28;20048;-31
2023/03/02 01:03:39;;;;;;;18.20;10.97;;;1.20;99.90;;;;;;5059143;28;20056;-33
2023/03/02 01:06:12;;;;;;;18.57;11.23;;;1.10;99.90;;;;;;5076638;28;20049;-32
2023/03/02 01:08:38;;;;;;;17.60;10.95;;;1.10;99.90;;;;;;5059530;28;20518;-32
2023/03/02 01:11:21;;;;;;;18.57;11.37;;;1.00;99.90;;;;;;5076584;28;20049;-32
2023/03/02 01:13:48;;;;;;;18.90;11.52;;;1.00;99.90;;;;;;5075730;28;20056;-32
2023/03/02 01:16:14;;;;;;;16.73;11.00;;;0.90;99.90;;;;;;5075356;28;20052;-31
2023/03/02 01:18:40;;;;;;;16.80;10.47;;;0.90;99.90;;;;;;5075305;28;20102;-32
2023/03/02 01:21:10;;;;;;;16.97;10.30;;;0.80;99.90;;;;;;5076421;28;20151;-32
2023/03/02 01:23:36;;;;;;;21.13;11.13;;;0.80;99.90;;;;;;5075512;28;20119;-32
2023/03/02 01:26:02;;;;;;;18.47;11.97;;;0.90;99.90;;;;;;5076267;28;20124;-32
2023/03/02 01:28:31;;;;;;;18.30;11.40;;;0.90;99.90;;;;;;5058384;28;20127;-32
2023/03/02 01:30:56;;;;;;;16.27;11.60;;;1.00;99.90;;;;;;5075727;28;20044;-33
2023/03/02 01:33:22;;;;;;;20.07;12.43;;;1.00;99.90;;;;;;5058064;28;20056;-31
2023/03/02 01:35:49;;;;;;;21.07;12.63;;;1.10;99.90;;;;;;5075266;28;20048;-32
2023/03/02 01:38:18;;;;;;;22.10;13.10;;;1.10;99.90;;;;;;5041855;28;20045;-32
2023/03/02 01:40:44;;;;;;;21.03;13.77;;;1.10;99.90;;;;;;5058499;28;20135;-32
2023/03/02 01:43:16;;;;;;;21.97;13.63;;;1.20;99.90;;;;;;5075669;28;20094;-32
2023/03/02 01:45:54;;;;;;;20.37;14.10;;;1.20;99.90;;;;;;5076380;28;20105;-32
2023/03/02 01:48:30;;;;;;;26.37;15.17;;;1.30;99.90;;;;;;5075145;28;20045;-33
2023/03/02 01:50:57;;;;;;;23.80;15.00;;;1.40;99.90;;;;;;5058659;28;20379;-32
2023/03/02 01:53:28;;;;;;;29.20;16.27;;;1.40;99.90;;;;;;5058278;28;20414;-32
2023/03/02 01:55:57;;;;;;;22.40;14.87;;;1.50;99.90;;;;;;5076486;28;20548;-32
2023/03/02 01:58:23;;;;;;;23.60;15.20;;;1.50;99.90;;;;;;5074646;28;20123;-32
2023/03/02 02:00:51;;;;;;;22.77;15.17;;;1.50;99.90;;;;;;5058059;28;20478;-31
2023/03/02 02:03:25;;;;;;;24.90;15.87;;;1.50;99.90;;;;;;5074993;28;20382;-32
2023/03/02 02:06:12;;;;;;;24.40;14.87;;;1.50;99.90;;;;;;5075849;28;20060;-32
2023/03/02 02:08:38;;;;;;;27.60;16.23;;;1.60;99.90;;;;;;5075044;28;20083;-32
2023/03/02 02:11:05;;;;;;;25.07;16.77;;;1.50;99.90;;;;;;5074587;28;20174;-32
2023/03/02 02:13:31;;;;;;;28.07;16.23;;;1.50;99.90;;;;;;5074305;28;20422;-33
2023/03/02 02:15:57;;;;;;;29.67;19.03;;;1.50;99.90;;;;;;5075427;28;20044;-32
2023/03/02 02:18:24;;;;;;;27.70;17.87;;;1.50;99.90;;;;;;5075911;28;20510;-32
2023/03/02 02:20:52;;;;;;;30.43;18.47;;;1.50;99.90;;;;;;5074356;28;20162;-32
2023/03/02 02:23:41;;;;;;;31.67;19.87;;;1.50;99.90;;;;;;5075246;28;20051;-32
2023/03/02 02:26:33;;;;;;;27.23;16.80;;;1.50;99.90;;;;;;5075730;28;20045;-32
2023/03/02 02:29:06;;;;;;;34.10;19.60;;;1.50;99.90;;;;;;5075194;28;20048;-32
2023/03/02 02:31:50;;;;;;;37.03;20.83;;;1.50;99.90;;;;;;5075177;28;20048;-33
2023/03/02 02:34:43;;;;;;;36.45;20.00;;;1.40;99.90;;;;;;5075087;28;20048;-32
2023/03/02 02:37:20;;;;;;;34.10;18.38;;;1.40;99.90;;;;;;5075336;28;20435;-32
2023/03/02 02:39:48;;;;;;;37.03;20.87;;;1.40;99.90;;;;;;5074957;28;20048;-32
2023/03/02 02:42:23;;;;;;;36.77;20.07;;;1.30;99.90;;;;;;5074531;28;20514;-33
2023/03/02 02:44:50;;;;;;;40.17;23.27;;;1.30;99.90;;;;;;5073783;28;20123;-32
2023/03/02 02:47:19;;;;;;;44.67;23.43;;;1.30;99.90;;;;;;5056991;28;20487;-32
2023/03/02 02:49:49;;;;;;;45.30;25.20;;;1.60;99.90;;;;;;5075517;28;20044;-32
2023/03/02 02:52:18;;;;;;;49.70;24.93;;;1.30;99.90;;;;;;5073259;28;20044;-31
2023/03/02 02:54:47;;;;;;;46.13;24.97;;;1.30;99.90;;;;;;5075427;28;20082;-31
2023/03/02 02:57:16;;;;;;;53.07;25.77;;;1.30;99.90;;;;;;5074536;28;20074;-33
2023/03/02 02:59:51;;;;;;;54.13;26.40;;;1.30;99.90;;;;;;5074510;28;20052;-32
2023/03/02 03:02:21;;;;;;;56.97;25.87;;;1.30;99.90;;;;;;5074203;28;20477;-32
2023/03/02 03:04:47;;;;;;;53.67;25.90;;;1.30;99.90;;;;;;5057011;28;20554;-33
2023/03/02 03:07:24;;;;;;;46.30;23.83;;;1.30;99.90;;;;;;5074027;28;20068;-33
2023/03/02 03:10:14;;;;;;;50.70;25.63;;;1.20;99.90;;;;;;5075206;28;20079;-32
2023/03/02 03:12:41;;;;;;;50.77;26.67;;;1.20;99.90;;;;;;5074577;28;20500;-33
2023/03/02 03:15:08;;;;;;;52.87;26.20;;;1.20;99.90;;;;;;5073077;28;20045;-31
2023/03/02 03:17:34;;;;;;;52.37;26.13;;;1.20;99.90;;;;;;5073488;28;20049;-32
2023/03/02 03:20:05;;;;;;;64.23;29.33;;;1.20;99.90;;;;;;5074207;28;20055;-32
2023/03/02 03:22:33;;;;;;;56.17;28.03;;;1.20;99.90;;;;;;5074748;28;20040;-32
2023/03/02 03:25:00;;;;;;;55.10;28.10;;;1.20;99.90;;;;;;5073400;28;20095;-31
2023/03/02 03:27:25;;;;;;;58.67;28.73;;;1.20;99.90;;;;;;5072778;28;20044;-32
2023/03/02 03:29:51;;;;;;;54.00;28.13;;;1.20;99.90;;;;;;5074053;28;20051;-32
2023/03/02 03:32:18;;;;;;;64.10;29.60;;;1.20;99.90;;;;;;5074542;28;20049;-32
2023/03/02 03:34:44;;;;;;;58.57;29.63;;;1.30;99.90;;;;;;5073975;28;20052;-32
2023/03/02 03:37:14;;;;;;;70.73;31.00;;;1.20;99.90;;;;;;5074474;28;20044;-32
2023/03/02 03:39:41;;;;;;;63.37;30.73;;;1.20;99.90;;;;;;5074239;28;20368;-32
2023/03/02 03:42:06;;;;;;;68.87;30.40;;;1.20;99.90;;;;;;5073849;28;20384;-32
2023/03/02 03:44:32;;;;;;;85.97;31.40;;;1.20;99.90;;;;;;5074401;28;20043;-33
2023/03/02 03:46:58;;;;;;;62.03;27.13;;;1.30;99.90;;;;;;5055981;28;20225;-32
2023/03/02 03:49:25;;;;;;;79.53;33.20;;;1.20;99.90;;;;;;5073806;28;20087;-31
2023/03/02 03:51:50;;;;;;;77.43;32.17;;;1.20;99.90;;;;;;5073712;28;20044;-32
2023/03/02 03:54:16;;;;;;;92.63;34.13;;;1.20;99.90;;;;;;5073007;28;20052;-32
2023/03/02 03:56:45;;;;;;;90.30;35.00;;;1.10;99.90;;;;;;5073685;28;20047;-32
2023/03/02 03:59:18;;;;;;;91.07;33.43;;;1.10;99.90;;;;;;5073926;28;20487;-32
2023/03/02 04:01:48;;;;;;;116.23;34.57;;;1.10;99.90;;;;;;5073782;28;20044;-32
2023/03/02 04:04:17;;;;;;;104.63;31.27;;;1.10;99.90;;;;;;5074309;28;20048;-32
2023/03/02 04:06:43;;;;;;;148.07;33.73;;;1.10;99.90;;;;;;5073395;28;20048;-32
2023/03/02 04:09:11;;;;;;;98.67;32.97;;;1.10;99.90;;;;;;5074464;28;20052;-32
2023/03/02 04:11:39;;;;;;;119.40;34.83;;;1.10;99.90;;;;;;5073399;28;20063;-32
2023/03/02 04:14:07;;;;;;;169.27;34.87;;;1.00;99.90;;;;;;5073466;28;20088;-32
2023/03/02 04:16:34;;;;;;;125.10;35.50;;;1.30;99.90;;;;;;5073463;28;20667;-32
2023/03/02 04:19:01;;;;;;;123.77;35.10;;;1.00;99.90;;;;;;5073487;28;20048;-32
2023/03/02 04:21:27;;;;;;;141.43;38.73;;;1.00;99.90;;;;;;5073429;28;20466;-32
2023/03/02 04:23:54;;;;;;;164.67;38.87;;;1.00;99.90;;;;;;5073080;28;20434;-32
2023/03/02 04:26:19;;;;;;;186.67;39.20;;;1.00;99.90;;;;;;5073918;28;20053;-33
2023/03/02 04:28:49;;;;;;;117.87;33.93;;;1.00;99.90;;;;;;5073639;28;20052;-32
2023/03/02 04:31:16;;;;;;;120.37;36.63;;;1.00;99.90;;;;;;5073385;28;20451;-32
2023/03/02 04:33:41;;;;;;;150.97;32.90;;;1.10;99.90;;;;;;5074124;28;20426;-32
2023/03/02 04:36:07;;;;;;;197.40;37.27;;;1.00;99.90;;;;;;5073572;28;20051;-32
2023/03/02 04:38:33;;;;;;;150.33;35.70;;;1.00;99.90;;;;;;5073219;28;20048;-33
2023/03/02 04:40:59;;;;;;;137.73;33.00;;;1.00;99.90;;;;;;5072236;28;20064;-33
2023/03/02 04:43:25;;;;;;;139.00;36.97;;;1.00;99.90;;;;;;5073262;28;20044;-31
2023/03/02 04:45:52;;;;;;;126.20;35.33;;;1.10;99.90;;;;;;5074020;28;20123;-32
2023/03/02 04:48:18;;;;;;;203.30;39.77;;;1.00;99.90;;;;;;5073113;28;20048;-31
2023/03/02 04:50:45;;;;;;;139.87;38.20;;;1.00;99.90;;;;;;5073138;28;20478;-32
2023/03/02 04:53:11;;;;;;;204.50;37.93;;;1.00;99.90;;;;;;5073139;28;20044;-32
2023/03/02 04:55:37;;;;;;;239.87;41.20;;;1.00;99.90;;;;;;5073088;28;20131;-32
2023/03/02 04:58:04;;;;;;;268.03;44.07;;;0.90;99.90;;;;;;5073896;28;20119;-32
2023/03/02 05:00:34;;;;;;;250.00;38.73;;;0.90;99.90;;;;;;5073049;28;20045;-32
2023/03/02 05:03:03;;;;;;;217.57;35.90;;;0.90;99.90;;;;;;5073638;28;20059;-32
2023/03/02 05:05:30;;;;;;;201.93;37.30;;;0.90;99.90;;;;;;5072953;28;20052;-32
2023/03/02 05:07:57;;;;;;;196.27;39.87;;;0.90;99.90;;;;;;5072484;28;20045;-32
2023/03/02 05:10:24;;;;;;;245.43;40.53;;;1.00;99.90;;;;;;5071859;28;20439;-32
2023/03/02 05:12:53;;;;;;;240.27;38.73;;;0.90;99.90;;;;;;5072972;28;20127;-32
2023/03/02 05:15:39;;;;;;;288.80;42.97;;;0.90;99.90;;;;;;5074735;28;20123;-32
2023/03/02 05:18:07;;;;;;;279.23;44.53;;;0.90;99.90;;;;;;5075401;28;20048;-31
2023/03/02 05:20:33;;;;;;;251.03;39.70;;;0.90;99.90;;;;;;5058888;28;20091;-32
2023/03/02 05:23:01;;;;;;;261.73;43.60;;;0.90;99.90;;;;;;5076413;28;20044;-32
2023/03/02 05:25:29;;;;;;;416.33;49.73;;;0.80;99.90;;;;;;5077213;28;20048;-31
2023/03/02 05:27:55;;;;;;;401.90;47.43;;;0.90;99.90;;;;;;5076279;28;20123;-32
2023/03/02 05:30:22;;;;;;;321.87;43.37;;;0.80;99.90;;;;;;5075936;28;20113;-32
2023/03/02 05:32:49;;;;;;;321.57;40.53;;;0.90;99.90;;;;;;5074746;28;20546;-32
2023/03/02 05:35:15;;;;;;;298.63;45.13;;;0.90;99.90;;;;;;5076178;28;20119;-32
2023/03/02 05:37:43;;;;;;;371.73;44.70;;;0.80;99.90;;;;;;5075250;28;20048;-32
2023/03/02 05:40:12;;;;;;;331.10;46.30;;;0.90;99.90;;;;;;5076970;28;20052;-31
2023/03/02 05:42:39;;;;;;;428.27;55.50;;;0.90;99.90;;;;;;5075386;28;20051;-32
2023/03/02 05:45:07;;;;;;;478.47;55.43;;;0.90;99.90;;;;;;5074808;28;20052;-32
2023/03/02 05:47:33;;;;;;;378.80;53.73;;;0.90;99.90;;;;;;5076643;28;20091;-33
2023/03/02 05:49:59;;;;;;;344.43;57.57;;;1.00;99.90;;;;;;5074768;28;20095;-32
2023/03/02 05:52:25;;;;;;;467.27;63.20;;;0.90;99.90;;;;;;5075551;28;20085;-31
2023/03/02 05:54:51;;;;;;;440.90;64.20;;;0.90;99.90;;;;;;5075691;28;20044;-31
2023/03/02 05:57:17;;;;;;;521.00;65.03;;;0.90;99.90;;;;;;5076207;28;20044;-32
2023/03/02 05:59:45;;;;;;;530.47;64.07;;;0.90;99.90;;;;;;5075633;28;20059;-32
2023/03/02 06:02:12;;;;;;;479.20;63.73;;;1.00;99.90;;;;;;5075808;28;20070;-32
2023/03/02 06:04:42;;;;;;;474.83;66.27;;;1.00;99.90;;;;;;5075407;28;20049;-31
2023/03/02 06:07:11;;;;;;;457.80;69.03;;;1.00;99.90;;;;;;5075096;28;20064;-31
2023/03/02 06:09:40;;;;;;;396.77;60.20;;;1.00;99.90;;;;;;5075430;28;20049;-32
2023/03/02 06:12:07;;;;;;;411.40;59.37;;;1.10;99.90;;;;;;5074204;28;20441;-33
2023/03/02 06:14:33;;;;;;;392.40;59.37;;;1.00;99.90;;;;;;5075367;28;20083;-32
2023/03/02 06:16:59;;;;;;;503.53;60.70;;;1.00;99.90;;;;;;5075029;28;20390;-31
2023/03/02 06:19:25;;;;;;;428.53;61.77;;;1.00;99.90;;;;;;5075382;28;20044;-31
2023/03/02 06:21:51;;;;;;;442.10;59.23;;;1.00;99.90;;;;;;5075290;28;20045;-34
2023/03/02 06:24:17;;;;;;;377.93;59.53;;;1.00;99.90;;;;;;5075275;28;20048;-32
2023/03/02 06:26:43;;;;;;;451.27;59.30;;;1.00;99.90;;;;;;5075724;28;20422;-32
2023/03/02 06:29:08;;;;;;;374.90;61.37;;;1.00;99.90;;;;;;5075183;28;20055;-31
2023/03/02 06:31:34;;;;;;;417.43;61.07;;;1.00;99.90;;;;;;5075647;28;20056;-31
2023/03/02 06:34:00;;;;;;;450.67;64.93;;;1.10;99.90;;;;;;5075037;28;20044;-32
2023/03/02 06:36:27;;;;;;;416.60;62.20;;;1.10;99.90;;;;;;5075825;28;20119;-32
2023/03/02 06:38:53;;;;;;;432.47;60.70;;;1.10;99.90;;;;;;5074970;28;20502;-32
2023/03/02 06:41:19;;;;;;;365.17;57.83;;;1.10;99.90;;;;;;5075205;28;20052;-33
2023/03/02 06:43:45;;;;;;;481.00;62.27;;;1.10;99.90;;;;;;5074875;28;20044;-32
2023/03/02 06:46:11;;;;;;;644.07;66.87;;;1.10;99.90;;;;;;5075040;28;20083;-32
2023/03/02 06:48:37;;;;;;;507.30;66.57;;;1.10;99.90;;;;;;5074596;28;20080;-32
2023/03/02 06:51:03;;;;;;;472.87;64.70;;;1.10;99.90;;;;;;5075489;28;20060;-31
2023/03/02 06:53:29;;;;;;;507.23;64.17;;;1.10;99.90;;;;;;5057893;28;20052;-32
2023/03/02 06:55:54;;;;;;;407.83;60.53;;;1.10;99.90;;;;;;5074592;28;20075;-32
2023/03/02 06:58:20;;;;;;;555.40;68.53;;;1.10;99.90;;;;;;5074633;28;20131;-32
2023/03/02 07:00:46;;;;;;;596.10;74.57;;;1.10;99.90;;;;;;5074580;28;20041;-32
2023/03/02 07:03:12;;;;;;;606.97;70.87;;;1.40;99.90;;;;;;5074501;28;20104;-32
2023/03/02 07:05:38;;;;;;;508.87;67.27;;;1.20;99.90;;;;;;5074383;28;20131;-32
2023/03/02 07:08:03;;;;;;;525.03;65.47;;;1.20;99.90;;;;;;5074099;28;20087;-32
2023/03/02 07:10:29;;;;;;;525.53;64.60;;;1.20;99.90;;;;;;5074933;28;20084;-32
2023/03/02 07:12:55;;;;;;;428.97;60.97;;;1.30;99.90;;;;;;5074875;28;20044;-32
2023/03/02 07:15:21;;;;;;;523.70;64.80;;;1.30;99.90;;;;;;5074525;28;20051;-32
2023/03/02 07:17:47;;;;;;;507.80;63.47;;;1.30;99.90;;;;;;5074215;28;20041;-32
2023/03/02 07:20:15;;;;;;;440.80;62.60;;;1.30;99.90;;;;;;5074486;28;20221;-32
2023/03/02 07:22:41;;;;;;;383.70;62.57;;;1.30;99.90;;;;;;5073158;28;20055;-32
2023/03/02 07:25:09;;;;;;;404.10;62.73;;;1.40;99.90;;;;;;5074107;28;20045;-31
2023/03/02 07:27:36;;;;;;;396.50;62.90;;;1.30;99.90;;;;;;5073993;28;20149;-32
2023/03/02 07:30:02;;;;;;;344.37;55.33;;;1.30;99.90;;;;;;5073109;28;20052;-31
2023/03/02 07:32:28;;;;;;;356.13;54.97;;;1.40;99.90;;;;;;5074025;28;20076;-32
2023/03/02 07:34:54;;;;;;;433.23;63.50;;;1.30;99.90;;;;;;5073968;28;20497;-32
2023/03/02 07:37:20;;;;;;;328.93;58.10;;;1.30;99.90;;;;;;5073272;28;20051;-32
2023/03/02 07:39:47;;;;;;;344.00;55.77;;;1.30;99.90;;;;;;5072697;28;20051;-32
2023/03/02 07:42:14;;;;;;;379.10;55.93;;;1.60;99.90;;;;;;5073559;28;20498;-31
2023/03/02 07:44:40;;;;;;;338.57;53.10;;;1.40;99.90;;;;;;5072675;28;20390;-32
2023/03/02 07:47:06;;;;;;;379.13;51.80;;;1.40;99.90;;;;;;5074553;28;20482;-32
2023/03/02 07:49:34;;;;;;;393.93;50.07;;;1.40;99.90;;;;;;5073776;28;20045;-32
2023/03/02 07:52:01;;;;;;;234.23;43.77;;;1.40;99.90;;;;;;5073748;28;20048;-32
2023/03/02 07:54:29;;;;;;;281.57;40.10;;;1.50;99.90;;;;;;5056313;28;20044;-32
2023/03/02 07:56:56;;;;;;;221.27;31.67;;;1.40;99.90;;;;;;5074004;28;20048;-32
2023/03/02 07:59:22;;;;;;;237.50;34.83;;;1.30;99.90;;;;;;5074504;28;20041;-31
2023/03/02 08:01:48;;;;;;;234.97;40.13;;;1.30;99.90;;;;;;5073606;28;20490;-32
2023/03/02 08:04:14;;;;;;;213.93;40.43;;;1.30;99.90;;;;;;5073502;28;20051;-32
2023/03/02 08:06:45;;;;;;;314.13;44.17;;;1.40;99.90;;;;;;5073236;28;20417;-31
2023/03/02 08:09:12;;;;;;;301.97;40.30;;;1.40;99.90;;;;;;5073630;28;20067;-32
2023/03/02 08:11:38;;;;;;;590.10;56.63;;;1.40;99.90;;;;;;5072472;28;20548;-32
2023/03/02 08:14:03;;;;;;;276.53;35.37;;;1.40;99.90;;;;;;5073479;28;20084;-32
2023/03/02 08:16:30;;;;;;;411.43;47.27;;;1.50;99.90;;;;;;5073492;28;20131;-31
2023/03/02 08:18:56;;;;;;;227.73;40.53;;;1.70;99.90;;;;;;5073347;28;20044;-32
2023/03/02 08:21:23;;;;;;;280.60;42.17;;;1.60;99.90;;;;;;5073437;28;20131;-33
2023/03/02 08:23:49;;;;;;;195.33;39.10;;;1.70;99.90;;;;;;5073446;28;20052;-32
2023/03/02 08:26:17;;;;;;;192.33;37.80;;;1.80;99.90;;;;;;5072352;28;20547;-31
2023/03/02 08:28:43;;;;;;;111.30;32.07;;;1.90;99.90;;;;;;5074195;28;20395;-32
2023/03/02 08:31:09;;;;;;;119.40;34.70;;;1.90;99.90;;;;;;5074192;28;20083;-31
2023/03/02 08:33:35;;;;;;;131.33;36.67;;;2.00;99.90;;;;;;5073334;28;20045;-32
2023/03/02 08:36:11;;;;;;;163.88;37.28;;;2.10;99.90;;;;;;5073568;28;20040;-32
2023/03/02 08:38:37;;;;;;;171.40;36.87;;;2.20;99.90;;;;;;5073628;28;20102;-32
2023/03/02 08:41:07;;;;;;;125.90;35.87;;;2.30;99.90;;;;;;5073243;28;20044;-33
2023/03/02 08:43:34;;;;;;;138.18;34.80;;;2.30;99.90;;;;;;5073437;28;20067;-32
2023/03/02 08:46:00;;;;;;;120.88;34.83;;;2.40;99.90;;;;;;5073182;28;20049;-32
2023/03/02 08:48:28;;;;;;;91.13;32.25;;;2.50;99.90;;;;;;5055229;28;20049;-33
2023/03/02 08:51:06;;;;;;;142.68;32.33;;;2.60;99.90;;;;;;5077064;28;20044;-32
2023/03/02 08:53:35;;;;;;;157.00;31.73;;;2.80;99.90;;;;;;5077112;28;20048;-32
2023/03/02 08:56:01;;;;;;;128.40;30.17;;;2.70;99.90;;;;;;5077240;28;20044;-32
2023/03/02 08:58:28;;;;;;;102.72;29.40;;;2.70;99.90;;;;;;5076941;28;20359;-32
2023/03/02 09:00:54;;;;;;;72.90;24.60;;;2.50;99.90;;;;;;5076846;28;20521;-32
2023/03/02 09:03:20;;;;;;;57.25;20.70;;;2.40;99.90;;;;;;5075831;28;20131;-32
2023/03/02 09:05:46;;;;;;;54.30;19.65;;;2.20;99.90;;;;;;5076685;28;20131;-32
2023/03/02 09:08:12;;;;;;;45.63;20.42;;;2.20;99.90;;;;;;5077252;28;20194;-32
2023/03/02 09:10:38;;;;;;;58.95;19.85;;;2.10;99.90;;;;;;5076727;28;20509;-31
2023/03/02 09:13:04;;;;;;;69.82;22.23;;;2.20;99.90;;;;;;5075449;28;20083;-32
2023/03/02 09:15:30;;;;;;;73.88;24.33;;;2.10;99.90;;;;;;5075411;28;20105;-32
2023/03/02 09:17:56;;;;;;;51.88;22.13;;;2.20;99.90;;;;;;5076748;28;20051;-32
2023/03/02 09:20:22;;;;;;;48.38;22.95;;;2.30;99.90;;;;;;5076546;28;20041;-32
2023/03/02 09:22:49;;;;;;;54.05;22.73;;;2.50;99.90;;;;;;5077029;28;20429;-33
2023/03/02 09:25:18;;;;;;;52.70;22.98;;;2.90;99.90;;;;;;5076428;28;20044;-32
2023/03/02 09:27:45;;;;;;;52.30;20.95;;;3.00;99.90;;;;;;5077120;28;20066;-32
2023/03/02 09:30:13;;;;;;;42.38;19.80;;;3.10;99.90;;;;;;5075365;28;20513;-32
2023/03/02 09:32:39;;;;;;;39.92;19.33;;;2.90;99.90;;;;;;5076275;28;20049;-32
2023/03/02 09:35:06;;;;;;;45.47;20.67;;;3.00;99.90;;;;;;5076255;28;20052;-32
2023/03/02 09:37:31;;;;;;;45.70;21.73;;;3.00;99.90;;;;;;5076820;28;20101;-33
2023/03/02 09:39:57;;;;;;;40.25;21.55;;;3.30;99.90;;;;;;5075044;28;20577;-32
2023/03/02 09:42:40;;;;;;;38.97;20.70;;;3.30;99.90;;;;;;5076135;28;20446;-32
2023/03/02 09:45:20;;;;;;;34.83;19.57;;;3.40;99.90;;;;;;5076675;28;20052;-33
2023/03/02 09:47:59;;;;;;;35.00;19.45;;;3.30;99.90;;;;;;5075944;28;20483;-32
2023/03/02 09:50:30;;;;;;;31.60;19.13;;;3.70;99.90;;;;;;5076524;28;20048;-33
2023/03/02 09:52:59;;;;;;;32.72;18.02;;;4.20;99.90;;;;;;5058173;28;20055;-33
2023/03/02 09:55:31;;;;;;;32.15;17.95;;;4.50;99.90;;;;;;5075848;28;20044;-32
2023/03/02 09:58:01;;;;;;;31.85;17.92;;;4.70;99.90;;;;;;5076405;28;20055;-33
2023/03/02 10:00:46;;;;;;;28.30;17.63;;;4.40;99.90;;;;;;5075495;28;20051;-32
2023/03/02 10:03:18;;;;;;;33.95;19.23;;;4.20;99.90;;;;;;5075786;28;20131;-32
2023/03/02 10:05:50;;;;;;;30.63;18.33;;;4.00;99.90;;;;;;5074597;28;20139;-33
2023/03/02 10:08:26;;;;;;;27.67;15.75;;;3.90;99.90;;;;;;5073901;28;20056;-32
2023/03/02 10:11:10;;;;;;;29.10;17.17;;;3.80;99.90;;;;;;5076151;28;20145;-33
2023/03/02 10:13:41;;;;;;;33.47;17.20;;;3.50;99.90;;;;;;5076079;28;20048;-33
2023/03/02 10:16:16;;;;;;;33.15;18.13;;;3.50;99.90;;;;;;5075462;28;20088;-33
2023/03/02 10:18:48;;;;;;;24.98;13.90;;;3.40;99.90;;;;;;5076014;28;20052;-32
2023/03/02 10:21:38;;;;;;;28.95;16.83;;;3.40;99.90;;;;;;5075383;28;20494;-33
2023/03/02 10:24:09;;;;;;;32.00;17.60;;;3.40;99.90;;;;;;5075390;28;20117;-32
2023/03/02 10:26:41;;;;;;;30.65;17.23;;;3.60;99.90;;;;;;5074860;28;20514;-32
2023/03/02 10:29:49;;;;;;;27.65;15.93;;;4.00;99.90;;;;;;5075181;28;20059;-33
2023/03/02 10:32:44;;;;;;;25.85;15.07;;;4.10;99.90;;;;;;5074646;28;20052;-33
2023/03/02 10:35:18;;;;;;;24.33;14.27;;;4.10;99.90;;;;;;5074523;28;20499;-33
2023/03/02 10:37:43;;;;;;;23.40;14.30;;;4.20;99.90;;;;;;5075063;28;20084;-32
2023/03/02 10:40:39;;;;;;;26.35;14.60;;;4.40;99.90;;;;;;5057149;28;20083;-34
2023/03/02 10:43:10;;;;;;;22.92;13.15;;;4.80;99.90;;;;;;5074173;28;20074;-32
2023/03/02 10:45:36;;;;;;;22.52;14.27;;;5.00;99.90;;;;;;5075264;28;20178;-33
2023/03/02 10:48:04;;;;;;;22.63;14.32;;;5.00;99.90;;;;;;5074388;28;20120;-33
2023/03/02 10:50:30;;;;;;;23.85;14.43;;;5.00;99.90;;;;;;5074767;28;20612;-32
2023/03/02 10:52:56;;;;;;;23.42;14.77;;;5.00;99.90;;;;;;5074711;28;20135;-33
2023/03/02 10:55:22;;;;;;;25.55;15.35;;;5.10;99.90;;;;;;5075295;28;20048;-33
2023/03/02 10:58:05;;;;;;;22.75;14.13;;;5.00;99.90;;;;;;5074668;28;20124;-33
2023/03/02 11:00:33;;;;;;;22.73;13.00;;;5.30;99.90;;;;;;5073175;28;20452;-33
2023/03/02 11:03:18;;;;;;;22.33;14.40;;;5.90;99.90;;;;;;5074586;28;20101;-33
2023/03/02 11:05:44;;;;;;;18.50;12.75;;;6.70;99.90;;;;;;5074470;28;20052;-32
2023/03/02 11:08:20;;;;;;;20.80;13.23;;;7.20;99.90;;;;;;5074011;28;20063;-33
2023/03/02 11:10:54;;;;;;;21.30;13.60;;;7.40;99.90;;;;;;5073451;28;20145;-34
2023/03/02 11:13:35;;;;;;;22.55;14.35;;;7.70;99.90;;;;;;5072486;28;20399;-33
2023/03/02 11:16:22;;;;;;;19.27;13.07;;;8.00;99.90;;;;;;5074350;28;20550;-33
2023/03/02 11:18:52;;;;;;;18.85;14.20;;;8.10;99.90;;;;;;5074558;28;20045;-33
2023/03/02 11:21:40;;;;;;;22.08;15.20;;;8.20;99.90;;;;;;5073188;28;20052;-34
2023/03/02 11:24:35;;;;;;;25.25;16.55;;;8.00;99.90;;;;;;5074761;28;20080;-33
2023/03/02 11:27:06;;;;;;;26.67;15.93;;;7.20;99.90;;;;;;5074360;28;20506;-33
2023/03/02 11:29:59;;;;;;;27.50;17.25;;;6.60;99.90;;;;;;5074338;28;20052;-33
2023/03/02 11:32:31;;;;;;;25.17;16.88;;;6.40;99.90;;;;;;5074039;28;20044;-33
2023/03/02 11:35:20;;;;;;;31.58;20.20;;;6.60;99.90;;;;;;5073772;28;20048;-33
2023/03/02 11:37:53;;;;;;;39.08;23.00;;;6.60;99.90;;;;;;5073076;28;20118;-33
2023/03/02 11:40:45;;;;;;;37.10;21.35;;;6.60;99.90;;;;;;5072657;28;20048;-33
2023/03/02 11:43:14;;;;;;;38.15;21.38;;;6.80;99.90;;;;;;5073918;28;20044;-33
2023/03/02 11:46:01;;;;;;;35.45;19.23;;;6.70;99.90;;;;;;5073745;28;20127;-33
2023/03/02 11:48:32;;;;;;;37.03;22.13;;;6.60;99.90;;;;;;5074567;28;20036;-32
2023/03/02 11:50:58;;;;;;;34.28;19.92;;;6.50;99.90;;;;;;5072776;28;20106;-33
2023/03/02 11:53:40;;;;;;;28.67;18.00;;;6.50;99.90;;;;;;5073716;28;20048;-32
2023/03/02 11:56:06;;;;;;;26.48;16.60;;;6.70;99.90;;;;;;5073232;28;20399;-33
2023/03/02 11:58:33;;;;;;;29.70;17.65;;;7.00;99.90;;;;;;5073688;28;20040;-33
2023/03/02 12:01:00;;;;;;;25.63;17.10;;;7.40;99.90;;;;;;5073654;28;20044;-33
2023/03/02 12:03:32;;;;;;;24.10;16.90;;;7.70;99.90;;;;;;5073658;28;20132;-33
2023/03/02 12:06:01;;;;;;;24.77;16.00;;;8.00;99.90;;;;;;5072065;28;20537;-33
2023/03/02 12:08:42;;;;;;;20.45;14.30;;;8.30;99.90;;;;;;5072359;28;20375;-33
2023/03/02 12:11:33;;;;;;;20.50;12.82;;;8.10;99.90;;;;;;5073601;28;20057;-33
2023/03/02 12:14:02;;;;;;;17.13;12.40;;;7.80;99.90;;;;;;5073115;28;20135;-35
2023/03/02 12:16:40;;;;;;;15.90;11.23;;;7.50;99.90;;;;;;5072244;28;20444;-32
2023/03/02 12:19:38;;;;;;;16.77;10.90;;;7.80;99.90;;;;;;5073109;28;20086;-33
2023/03/02 12:22:11;;;;;;;17.55;12.07;;;7.80;99.90;;;;;;5074282;28;20052;-33
2023/03/02 12:24:39;;;;;;;14.40;10.77;;;8.00;99.90;;;;;;5077893;28;20044;-33
2023/03/02 12:27:15;;;;;;;14.10;9.40;;;8.00;99.90;;;;;;5077250;28;20098;-33
2023/03/02 12:29:45;;;;;;;13.38;9.57;;;7.40;99.90;;;;;;5077529;28;20502;-34
2023/03/02 12:32:28;;;;;;;13.95;9.13;;;7.00;99.90;;;;;;5077421;28;20079;-33
2023/03/02 12:35:08;;;;;;;13.35;8.65;;;6.90;99.90;;;;;;5077969;28;20040;-33
2023/03/02 12:37:47;;;;;;;12.77;9.18;;;6.40;99.90;;;;;;5077347;28;20049;-33
2023/03/02 12:40:34;;;;;;;14.65;9.13;;;6.30;99.90;;;;;;5077320;28;20091;-33
2023/03/02 12:43:15;;;;;;;15.15;10.48;;;6.10;99.90;;;;;;5076289;28;20502;-33
2023/03/02 12:46:05;;;;;;;14.88;10.30;;;6.40;99.90;;;;;;5077165;28;20071;-32
2023/03/02 12:48:45;;;;;;;15.65;10.60;;;6.50;99.90;;;;;;5077874;28;20041;-32